Time;durP1;ratioP1;P1;durP2;ratioP2;P2;SDS_P1;SDS_P2;PMS_P1;PMS_P2;Temp;Humidity;BMP_temperature;BMP_pressure;BME280_temperature;BME280_humidity;BME280_pressure;Samples;Min_cycle;Max_cycle;Signal;HPM_P1;HPM_P2
2021/01/01 00:01:38;;;;;;;23.07;15.47;;;;;;;2.95;100.00;99767.47;5066344;28;20221;-74
2021/01/01 00:04:07;;;;;;;20.37;13.63;;;;;;;2.85;100.00;99762.78;5052806;28;20187;-74
2021/01/01 00:06:36;;;;;;;20.63;14.10;;;;;;;2.96;100.00;99771.81;5054379;28;20221;-74
2021/01/01 00:09:02;;;;;;;18.57;13.30;;;;;;;2.90;100.00;99765.53;5069212;28;20668;-73
2021/01/01 00:11:27;;;;;;;19.13;13.63;;;;;;;2.83;100.00;99770.25;5081016;28;20225;-73
2021/01/01 00:13:53;;;;;;;18.87;13.83;;;;;;;2.76;100.00;99766.91;5089761;28;20183;-73
2021/01/01 00:16:21;;;;;;;16.87;13.17;;;;;;;2.70;100.00;99770.59;5060370;28;20248;-73
2021/01/01 00:18:47;;;;;;;17.80;13.83;;;;;;;2.59;100.00;99773.34;5069112;28;20266;-73
2021/01/01 00:21:15;;;;;;;14.70;11.50;;;;;;;2.46;100.00;99768.31;5038872;28;20719;-73
2021/01/01 00:23:41;;;;;;;12.50;9.50;;;;;;;2.40;100.00;99765.75;5065087;28;20178;-72
2021/01/01 00:26:14;;;;;;;10.07;8.50;;;;;;;2.30;100.00;99779.78;5077112;28;20218;-72
2021/01/01 00:28:43;;;;;;;9.17;8.17;;;;;;;2.49;100.00;99761.63;5073656;28;20276;-73
2021/01/01 00:31:16;;;;;;;10.30;8.37;;;;;;;2.33;100.00;99770.47;5056587;28;20267;-73
2021/01/01 00:33:42;;;;;;;11.27;8.43;;;;;;;2.36;100.00;99762.78;5072719;28;20194;-73
2021/01/01 00:36:09;;;;;;;12.50;9.43;;;;;;;2.33;100.00;99773.16;5058848;28;20216;-74
2021/01/01 00:38:35;;;;;;;14.30;10.97;;;;;;;2.24;100.00;99785.31;5068148;28;20223;-72
2021/01/01 00:41:00;;;;;;;15.73;12.30;;;;;;;2.22;100.00;99779.38;5067706;28;20223;-73
2021/01/01 00:43:26;;;;;;;16.20;12.23;;;;;;;2.47;100.00;99771.78;5074312;28;20213;-73
2021/01/01 00:45:54;;;;;;;16.17;11.27;;;;;;;2.59;100.00;99777.91;5041822;28;20280;-73
2021/01/01 00:48:20;;;;;;;15.27;11.07;;;;;;;2.65;100.00;99788.44;5057002;28;20202;-74
2021/01/01 00:50:48;;;;;;;13.97;11.30;;;;;;;2.89;100.00;99777.31;5074801;28;20222;-74
2021/01/01 00:53:19;;;;;;;13.93;11.43;;;;;;;2.71;100.00;99780.25;5068452;28;20263;-73
2021/01/01 00:55:45;;;;;;;13.97;10.93;;;;;;;2.63;100.00;99784.41;5039110;28;20238;-74
2021/01/01 00:58:10;;;;;;;13.23;10.83;;;;;;;2.49;100.00;99783.06;5068931;28;20191;-74
2021/01/01 01:00:38;;;;;;;16.60;11.90;;;;;;;2.34;100.00;99790.84;5073999;28;20229;-76
2021/01/01 01:03:06;;;;;;;14.50;10.77;;;;;;;2.46;100.00;99780.88;5050586;28;20191;-74
2021/01/01 01:05:32;;;;;;;19.03;15.30;;;;;;;2.57;100.00;99785.38;5043129;28;20435;-74
2021/01/01 01:08:02;;;;;;;12.53;10.20;;;;;;;2.69;100.00;99778.84;5056851;28;20229;-74
2021/01/01 01:10:27;;;;;;;12.97;10.00;;;;;;;2.67;100.00;99780.16;5072464;28;20594;-74
2021/01/01 01:12:53;;;;;;;13.73;10.27;;;;;;;2.52;100.00;99779.91;5053364;28;20186;-77
2021/01/01 01:15:24;;;;;;;11.30;10.00;;;;;;;2.41;100.00;99775.44;5059018;28;20211;-74
2021/01/01 01:17:49;;;;;;;12.17;10.33;;;;;;;2.41;100.00;99783.47;5059767;28;20184;-75
2021/01/01 01:20:15;;;;;;;11.97;10.07;;;;;;;2.44;100.00;99783.00;5072118;28;20214;-75
2021/01/01 01:22:41;;;;;;;14.27;10.80;;;;;;;2.37;100.00;99788.50;5054311;28;20214;-74
2021/01/01 01:25:09;;;;;;;13.03;10.87;;;;;;;2.35;100.00;99789.81;5052706;28;20253;-75
2021/01/01 01:27:34;;;;;;;13.13;10.50;;;;;;;2.16;100.00;99791.06;5054424;28;20546;-74
2021/01/01 01:30:01;;;;;;;15.30;10.97;;;;;;;2.11;100.00;99788.28;5037911;28;20200;-74
2021/01/01 01:32:27;;;;;;;14.07;11.10;;;;;;;2.03;100.00;99803.91;5073523;28;20206;-74
2021/01/01 01:34:55;;;;;;;13.07;11.30;;;;;;;2.18;100.00;99802.34;5071150;28;20256;-74
2021/01/01 01:37:23;;;;;;;16.10;11.50;;;;;;;2.09;100.00;99809.13;5037807;28;20222;-74
2021/01/01 01:39:51;;;;;;;15.57;11.80;;;;;;;2.15;100.00;99800.13;5026677;28;20199;-74
2021/01/01 01:42:21;;;;;;;17.70;11.87;;;;;;;1.98;100.00;99801.94;5038480;28;20288;-73
2021/01/01 01:44:49;;;;;;;16.93;12.63;;;;;;;2.03;100.00;99799.38;5055353;28;20179;-73
2021/01/01 01:47:19;;;;;;;19.93;12.53;;;;;;;1.92;100.00;99813.63;5054996;28;20211;-74
2021/01/01 01:49:45;;;;;;;16.27;12.87;;;;;;;1.84;100.00;99818.53;5053792;28;20210;-74
2021/01/01 01:52:11;;;;;;;15.87;12.43;;;;;;;1.55;100.00;99821.38;5068524;28;20219;-75
2021/01/01 01:54:43;;;;;;;14.20;11.50;;;;;;;1.44;100.00;99818.72;5055404;28;20210;-74
2021/01/01 01:57:11;;;;;;;16.73;11.80;;;;;;;1.36;100.00;99811.88;5067258;28;20247;-74
2021/01/01 01:59:36;;;;;;;15.10;11.53;;;;;;;1.35;100.00;99815.56;5054000;28;20217;-74
2021/01/01 02:02:04;;;;;;;15.23;11.97;;;;;;;1.34;100.00;99821.97;5019551;28;20234;-74
2021/01/01 02:04:32;;;;;;;14.43;11.43;;;;;;;1.34;100.00;99824.66;5052491;28;20240;-74
2021/01/01 02:06:58;;;;;;;15.90;11.60;;;;;;;1.35;100.00;99820.91;5071187;28;20215;-74
2021/01/01 02:09:27;;;;;;;18.03;12.47;;;;;;;1.32;100.00;99824.09;5071723;28;20175;-74
2021/01/01 02:11:55;;;;;;;16.33;11.60;;;;;;;1.24;100.00;99818.25;5086423;28;20267;-74
2021/01/01 02:14:23;;;;;;;15.13;11.17;;;;;;;1.22;100.00;99826.50;5074198;28;20266;-74
2021/01/01 02:16:52;;;;;;;16.07;12.20;;;;;;;1.20;100.00;99825.94;5074292;28;20261;-74
2021/01/01 02:19:18;;;;;;;16.87;11.70;;;;;;;1.18;100.00;99830.69;5074793;28;20184;-74
2021/01/01 02:21:43;;;;;;;16.87;12.37;;;;;;;1.19;100.00;99827.00;5031134;28;20215;-73
2021/01/01 02:24:12;;;;;;;16.63;11.53;;;;;;;1.20;100.00;99828.59;5058700;28;20713;-73
2021/01/01 02:26:37;;;;;;;16.63;12.47;;;;;;;1.36;100.00;99822.56;5061635;28;20301;-74
2021/01/01 02:29:03;;;;;;;13.87;11.17;;;;;;;1.32;100.00;99832.09;5054757;28;20187;-73
2021/01/01 02:31:29;;;;;;;17.57;12.57;;;;;;;1.39;100.00;99835.47;5061963;28;20681;-73
2021/01/01 02:33:54;;;;;;;15.67;11.70;;;;;;;1.35;100.00;99831.63;5071256;28;20183;-74
2021/01/01 02:36:25;;;;;;;14.40;11.07;;;;;;;1.49;100.00;99833.00;5047421;28;20222;-73
2021/01/01 02:38:50;;;;;;;15.07;11.77;;;;;;;1.61;100.00;99831.13;5040656;28;20186;-74
2021/01/01 02:41:16;;;;;;;14.33;11.00;;;;;;;1.66;100.00;99840.06;5054044;28;20223;-74
2021/01/01 02:43:41;;;;;;;15.70;11.93;;;;;;;1.81;100.00;99835.03;5054209;28;20175;-73
2021/01/01 02:46:07;;;;;;;16.83;11.97;;;;;;;1.88;100.00;99830.38;5050436;28;20762;-74
2021/01/01 02:48:35;;;;;;;16.83;12.53;;;;;;;1.84;100.00;99826.53;5034790;28;20188;-74
2021/01/01 02:51:01;;;;;;;17.47;12.80;;;;;;;1.89;100.00;99828.50;5062679;28;20719;-74
2021/01/01 02:53:28;;;;;;;15.63;11.80;;;;;;;1.94;100.00;99822.22;5070785;28;20221;-74
2021/01/01 02:55:53;;;;;;;15.20;11.50;;;;;;;2.00;100.00;99831.97;5050091;28;20231;-74
2021/01/01 02:58:21;;;;;;;15.13;11.40;;;;;;;2.03;100.00;99833.34;5054634;28;20617;-74
2021/01/01 03:00:51;;;;;;;18.33;12.23;;;;;;;1.95;100.00;99831.88;5070278;28;20223;-74
2021/01/01 03:03:17;;;;;;;19.70;13.63;;;;;;;2.06;100.00;99831.00;5054486;28;20195;-74
2021/01/01 03:05:44;;;;;;;18.27;13.90;;;;;;;2.03;100.00;99820.81;5052222;28;20230;-73
2021/01/01 03:08:09;;;;;;;20.13;14.93;;;;;;;1.99;100.00;99834.88;5054191;28;20278;-74
2021/01/01 03:10:35;;;;;;;20.07;14.43;;;;;;;2.05;100.00;99820.53;5073626;28;20313;-74
2021/01/01 03:13:01;;;;;;;16.73;13.93;;;;;;;2.13;100.00;99820.97;5073784;28;20702;-74
2021/01/01 03:15:29;;;;;;;20.90;15.57;;;;;;;2.08;100.00;99834.25;5073178;28;20600;-74
2021/01/01 03:17:54;;;;;;;20.17;14.67;;;;;;;2.14;100.00;99829.81;5074467;28;20662;-74
2021/01/01 03:20:22;;;;;;;20.93;14.90;;;;;;;2.20;100.00;99821.66;5056874;28;20202;-74
2021/01/01 03:22:50;;;;;;;21.57;15.33;;;;;;;2.17;100.00;99827.47;5078882;28;20179;-74
2021/01/01 03:25:18;;;;;;;22.17;15.70;;;;;;;2.13;100.00;99810.28;5057403;28;20179;-74
2021/01/01 03:27:44;;;;;;;23.93;15.87;;;;;;;2.20;100.00;99813.63;5054423;28;20685;-73
2021/01/01 03:30:10;;;;;;;27.60;17.20;;;;;;;2.25;100.00;99811.03;5054104;28;20214;-73
2021/01/01 03:32:36;;;;;;;31.87;18.03;;;;;;;2.30;100.00;99816.47;5078256;28;20178;-74
2021/01/01 03:35:02;;;;;;;44.53;18.70;;;;;;;2.25;100.00;99818.25;5069652;28;20289;-73
2021/01/01 03:37:30;;;;;;;40.03;18.67;;;;;;;2.14;100.00;99821.78;5046798;28;20302;-74
2021/01/01 03:39:56;;;;;;;26.67;19.17;;;;;;;2.13;100.00;99820.97;5053243;28;20238;-74
2021/01/01 03:42:21;;;;;;;30.87;19.30;;;;;;;2.31;100.00;99815.44;5048429;28;20219;-74
2021/01/01 03:44:47;;;;;;;41.10;18.07;;;;;;;2.27;100.00;99810.78;5066938;28;20206;-74
2021/01/01 03:47:13;;;;;;;49.10;19.33;;;;;;;2.34;100.00;99818.47;5077456;28;20219;-74
2021/01/01 03:49:38;;;;;;;42.87;18.80;;;;;;;2.42;100.00;99822.63;5068384;28;20244;-74
2021/01/01 03:52:04;;;;;;;29.97;18.47;;;;;;;2.23;100.00;99809.66;5059481;28;20272;-74
2021/01/01 03:54:32;;;;;;;37.20;19.43;;;;;;;2.27;100.00;99806.25;5069892;28;20285;-73
2021/01/01 03:56:57;;;;;;;34.13;18.27;;;;;;;2.19;100.00;99814.66;5052334;28;20745;-73
2021/01/01 03:59:23;;;;;;;31.13;19.10;;;;;;;2.18;100.00;99817.56;5056685;28;20186;-72
2021/01/01 04:01:50;;;;;;;27.90;18.50;;;;;;;2.14;100.00;99814.56;5048948;28;20609;-73
2021/01/01 04:04:18;;;;;;;30.00;19.53;;;;;;;2.14;100.00;99814.56;5069226;28;20271;-73
2021/01/01 04:06:44;;;;;;;27.73;19.43;;;;;;;2.18;100.00;99822.94;5072606;28;20309;-73
2021/01/01 04:09:12;;;;;;;34.77;20.63;;;;;;;2.27;100.00;99816.94;5088427;28;20189;-73
2021/01/01 04:11:38;;;;;;;29.10;19.27;;;;;;;2.15;100.00;99818.06;5052790;28;20225;-73
2021/01/01 04:14:04;;;;;;;32.00;20.70;;;;;;;2.19;100.00;99820.03;5053469;28;20182;-73
2021/01/01 04:16:34;;;;;;;31.93;19.97;;;;;;;2.19;100.00;99814.66;5051581;28;20263;-73
2021/01/01 04:19:04;;;;;;;30.03;19.67;;;;;;;2.32;100.00;99814.38;5070561;28;20186;-73
2021/01/01 04:21:34;;;;;;;30.10;19.37;;;;;;;2.21;100.00;99820.59;5063410;28;20598;-73
2021/01/01 04:24:03;;;;;;;32.70;20.47;;;;;;;2.21;100.00;99834.00;5054200;28;20182;-73
2021/01/01 04:26:31;;;;;;;31.77;20.00;;;;;;;2.22;100.00;99830.28;5027406;28;20214;-73
2021/01/01 04:28:57;;;;;;;33.73;19.27;;;;;;;2.10;100.00;99826.00;5069627;28;20187;-73
2021/01/01 04:31:27;;;;;;;40.37;20.63;;;;;;;2.08;100.00;99828.91;5063391;28;20662;-73
2021/01/01 04:33:55;;;;;;;36.23;21.73;;;;;;;2.14;100.00;99832.50;5049777;28;20202;-73
2021/01/01 04:36:20;;;;;;;36.23;21.07;;;;;;;2.19;100.00;99825.38;5036121;28;20258;-73
2021/01/01 04:38:46;;;;;;;40.27;20.50;;;;;;;2.12;100.00;99829.25;5070544;28;20221;-73
2021/01/01 04:41:12;;;;;;;50.67;20.37;;;;;;;2.20;100.00;99827.03;5052696;28;20700;-73
2021/01/01 04:43:40;;;;;;;41.30;19.63;;;;;;;2.11;100.00;99833.00;5037576;28;20667;-73
2021/01/01 04:46:06;;;;;;;49.90;20.90;;;;;;;2.14;100.00;99827.94;5051778;28;20219;-73
2021/01/01 04:48:31;;;;;;;43.77;20.13;;;;;;;2.19;100.00;99835.28;5035809;28;20251;-73
2021/01/01 04:50:57;;;;;;;142.90;22.47;;;;;;;2.19;100.00;99836.09;5051767;28;20757;-73
2021/01/01 04:53:28;;;;;;;114.10;20.93;;;;;;;2.22;100.00;99835.63;5037754;28;20263;-73
2021/01/01 04:55:56;;;;;;;98.80;21.10;;;;;;;2.09;100.00;99835.09;5048524;28;20713;-73
2021/01/01 04:58:22;;;;;;;65.43;20.10;;;;;;;2.08;100.00;99844.97;5013970;28;20221;-73
2021/01/01 05:00:48;;;;;;;100.40;20.97;;;;;;;2.10;100.00;99840.19;5052518;28;20696;-73
2021/01/01 05:03:16;;;;;;;113.53;21.10;;;;;;;1.89;100.00;99839.22;5035618;28;20198;-72
2021/01/01 05:05:48;;;;;;;76.80;20.83;;;;;;;2.00;100.00;99842.69;5020101;28;20224;-73
2021/01/01 05:08:17;;;;;;;80.33;20.53;;;;;;;1.99;100.00;99845.59;5041918;28;20180;-73
2021/01/01 05:10:45;;;;;;;95.10;20.27;;;;;;;1.90;100.00;99841.66;5054824;28;20230;-73
2021/01/01 05:13:17;;;;;;;119.27;22.03;;;;;;;1.92;100.00;99840.38;5069534;28;20183;-73
2021/01/01 05:15:48;;;;;;;139.30;22.67;;;;;;;2.10;100.00;99847.41;5054615;28;20237;-73
2021/01/01 05:18:25;;;;;;;145.70;22.23;;;;;;;2.03;100.00;99842.22;5069378;28;20178;-73
2021/01/01 05:20:56;;;;;;;115.60;22.23;;;;;;;2.01;100.00;99848.84;5038859;28;20226;-73
2021/01/01 05:23:25;;;;;;;102.57;21.93;;;;;;;2.12;100.00;99862.19;5069340;28;20182;-73
2021/01/01 05:26:11;;;;;;;137.03;22.30;;;;;;;1.92;100.00;99851.09;5051569;28;20605;-73
2021/01/01 05:28:45;;;;;;;67.97;20.93;;;;;;;1.98;100.00;99858.16;5054622;28;20175;-73
2021/01/01 05:31:34;;;;;;;102.00;22.07;;;;;;;2.15;100.00;99853.69;5071651;28;20230;-73
2021/01/01 05:34:01;;;;;;;162.57;26.63;;;;;;;1.98;100.00;99850.13;5052467;28;20241;-72
2021/01/01 05:36:34;;;;;;;50.37;20.13;;;;;;;1.97;100.00;99848.50;5038701;28;20227;-72
2021/01/01 05:39:01;;;;;;;81.80;21.20;;;;;;;2.08;100.00;99855.69;5055822;28;20619;-72
2021/01/01 05:41:28;;;;;;;97.57;23.43;;;;;;;2.05;100.00;99856.19;5046524;28;20711;-72
2021/01/01 05:44:07;;;;;;;44.47;21.20;;;;;;;2.03;100.00;99852.94;5072675;28;20179;-75
2021/01/01 05:46:35;;;;;;;51.13;20.83;;;;;;;2.11;100.00;99857.09;5063568;28;20206;-72
2021/01/01 05:49:01;;;;;;;57.97;20.63;;;;;;;2.00;100.00;99858.75;5067865;28;20182;-72
2021/01/01 05:51:29;;;;;;;63.13;22.90;;;;;;;2.02;100.00;99862.00;5042228;28;20658;-73
2021/01/01 05:54:11;;;;;;;71.83;22.53;;;;;;;2.05;100.00;99869.56;5076147;28;20178;-73
2021/01/01 05:56:40;;;;;;;56.20;21.70;;;;;;;2.09;100.00;99867.22;5068518;28;20294;-73
2021/01/01 05:59:13;;;;;;;100.33;20.70;;;;;;;2.20;100.00;99869.88;5040929;28;20277;-72
2021/01/01 06:01:41;;;;;;;82.13;23.43;;;;;;;1.99;100.00;99870.50;5055743;28;20226;-73
2021/01/01 06:04:07;;;;;;;61.50;22.73;;;;;;;1.91;100.00;99880.75;5039764;28;20200;-73
2021/01/01 06:06:35;;;;;;;74.90;22.70;;;;;;;1.93;100.00;99882.16;5058941;28;20210;-72
2021/01/01 06:09:03;;;;;;;82.13;22.10;;;;;;;2.05;100.00;99877.59;5036838;28;20187;-73
2021/01/01 06:11:29;;;;;;;46.47;20.57;;;;;;;2.03;100.00;99887.72;5066962;28;20707;-72
2021/01/01 06:13:55;;;;;;;54.97;21.77;;;;;;;1.96;100.00;99884.38;5058775;28;20185;-73
2021/01/01 06:16:25;;;;;;;44.27;23.03;;;;;;;1.97;100.00;99885.16;5051672;28;20219;-73
2021/01/01 06:18:50;;;;;;;59.90;23.13;;;;;;;2.04;100.00;99880.50;5045297;28;20597;-73
2021/01/01 06:21:33;;;;;;;61.80;23.53;;;;;;;2.19;100.00;99889.66;5037744;28;20219;-73
2021/01/01 06:24:03;;;;;;;50.23;23.47;;;;;;;2.08;100.00;99890.50;5072698;28;20209;-73
2021/01/01 06:26:33;;;;;;;43.50;21.73;;;;;;;2.20;100.00;99885.94;5046748;28;20214;-73
2021/01/01 06:29:01;;;;;;;41.33;21.27;;;;;;;2.29;100.00;99884.50;5038791;28;20571;-73
2021/01/01 06:31:31;;;;;;;34.20;19.93;;;;;;;2.15;100.00;99896.53;5050466;28;20214;-73
2021/01/01 06:33:57;;;;;;;33.93;20.90;;;;;;;2.13;100.00;99895.97;5035738;28;20180;-73
2021/01/01 06:36:37;;;;;;;33.60;20.77;;;;;;;2.15;100.00;99891.19;5047319;28;20771;-73
2021/01/01 06:39:06;;;;;;;33.37;20.60;;;;;;;2.17;100.00;99896.31;5053249;28;20190;-73
2021/01/01 06:41:49;;;;;;;33.00;20.37;;;;;;;2.28;100.00;99902.44;5053986;28;20717;-73
2021/01/01 06:44:39;;;;;;;33.87;21.37;;;;;;;2.16;100.00;99905.38;5038051;28;20189;-73
2021/01/01 06:47:40;;;;;;;34.53;21.00;;;;;;;2.24;100.00;99903.16;5038670;28;20296;-73
2021/01/01 06:50:26;;;;;;;33.03;20.07;;;;;;;2.26;100.00;99901.03;5063439;28;20269;-72
2021/01/01 06:53:03;;;;;;;32.17;19.93;;;;;;;2.31;100.00;99904.63;5075109;28;20227;-73
2021/01/01 06:55:38;;;;;;;30.73;19.47;;;;;;;2.39;100.00;99916.84;5045257;28;20227;-72
2021/01/01 06:58:08;;;;;;;36.53;21.87;;;;;;;2.38;100.00;99907.16;5035994;28;20249;-73
2021/01/01 07:00:45;;;;;;;32.50;20.23;;;;;;;2.42;100.00;99914.50;5003723;28;20272;-73
2021/01/01 07:03:29;;;;;;;33.63;21.40;;;;;;;2.30;100.00;99919.06;5068602;28;20244;-73
2021/01/01 07:06:15;;;;;;;34.87;20.67;;;;;;;2.28;100.00;99920.38;5054481;28;20225;-73
2021/01/01 07:08:41;;;;;;;33.60;21.40;;;;;;;2.43;100.00;99926.03;5057821;28;20194;-73
2021/01/01 07:11:09;;;;;;;31.80;20.57;;;;;;;2.45;100.00;99926.59;5040362;28;20223;-74
2021/01/01 07:13:51;;;;;;;32.63;20.03;;;;;;;2.43;100.00;99923.34;5060241;28;20186;-73
2021/01/01 07:16:20;;;;;;;29.53;20.70;;;;;;;2.45;100.00;99931.97;5059873;28;20223;-73
2021/01/01 07:18:46;;;;;;;33.50;21.23;;;;;;;2.49;100.00;99935.78;5055448;28;20185;-73
2021/01/01 07:21:15;;;;;;;30.07;20.17;;;;;;;2.40;100.00;99939.88;5050858;28;20219;-72
2021/01/01 07:23:46;;;;;;;33.33;22.57;;;;;;;2.41;100.00;99936.97;5056600;28;20188;-73
2021/01/01 07:26:12;;;;;;;31.60;21.40;;;;;;;2.33;100.00;99939.22;5057730;28;20284;-73
2021/01/01 07:28:39;;;;;;;31.10;19.80;;;;;;;2.58;100.00;99942.41;5053764;28;20195;-72
2021/01/01 07:31:07;;;;;;;28.27;19.27;;;;;;;2.31;100.00;99952.84;5069702;28;20313;-73
2021/01/01 07:33:33;;;;;;;28.13;20.13;;;;;;;2.42;100.00;99949.34;5036840;28;20211;-73
2021/01/01 07:36:02;;;;;;;29.23;20.27;;;;;;;2.31;100.00;99946.69;5071854;28;20215;-73
2021/01/01 07:38:34;;;;;;;27.90;19.27;;;;;;;2.46;100.00;99955.03;5038213;28;20591;-73
2021/01/01 07:41:02;;;;;;;31.57;19.67;;;;;;;2.24;100.00;99945.19;5049778;28;20230;-73
2021/01/01 07:43:31;;;;;;;29.33;19.97;;;;;;;2.40;100.00;99951.44;5044227;28;20175;-73
2021/01/01 07:45:57;;;;;;;29.53;20.17;;;;;;;2.48;100.00;99947.56;5054486;28;20219;-73
2021/01/01 07:48:27;;;;;;;27.13;20.53;;;;;;;2.47;100.00;99945.94;5037316;28;20178;-73
2021/01/01 07:51:00;;;;;;;27.47;19.30;;;;;;;2.48;100.00;99947.56;5069157;28;20227;-73
2021/01/01 07:53:26;;;;;;;27.97;19.27;;;;;;;2.49;100.00;99949.19;5016234;28;20561;-73
2021/01/01 07:55:52;;;;;;;29.27;19.50;;;;;;;2.44;100.00;99946.41;5023034;28;20223;-73
2021/01/01 07:58:20;;;;;;;28.03;18.97;;;;;;;2.31;100.00;99955.53;5053833;28;20239;-73
2021/01/01 08:00:46;;;;;;;27.23;19.27;;;;;;;2.36;100.00;99955.66;5069870;28;20665;-74
2021/01/01 08:03:13;;;;;;;27.60;19.73;;;;;;;2.38;100.00;99963.41;5053651;28;20674;-73
2021/01/01 08:05:42;;;;;;;30.17;19.67;;;;;;;2.35;100.00;99963.91;5055662;28;20217;-74
2021/01/01 08:08:12;;;;;;;27.23;19.83;;;;;;;2.20;100.00;99966.28;5047603;28;20174;-74
2021/01/01 08:10:40;;;;;;;26.00;18.87;;;;;;;2.14;100.00;99959.16;5047855;28;20261;-74
2021/01/01 08:13:19;;;;;;;29.20;19.70;;;;;;;2.33;100.00;99966.81;5051929;28;20191;-73
2021/01/01 08:15:48;;;;;;;28.10;19.43;;;;;;;2.21;100.00;99961.72;5072467;28;20317;-74
2021/01/01 08:18:15;;;;;;;31.23;21.83;;;;;;;2.16;100.00;99964.28;5036797;28;20194;-74
2021/01/01 08:20:48;;;;;;;30.27;21.93;;;;;;;2.22;100.00;99958.81;5069198;28;20227;-74
2021/01/01 08:23:19;;;;;;;29.20;21.10;;;;;;;2.18;100.00;99968.38;5050061;28;20183;-74
2021/01/01 08:25:48;;;;;;;27.90;20.13;;;;;;;2.31;100.00;99960.88;5038410;28;20210;-74
2021/01/01 08:28:24;;;;;;;27.60;19.70;;;;;;;2.33;100.00;99961.47;5053673;28;20193;-74
2021/01/01 08:31:06;;;;;;;30.23;19.17;;;;;;;2.04;100.00;99975.00;5068297;28;20218;-75
2021/01/01 08:33:35;;;;;;;28.93;19.93;;;;;;;2.14;100.00;99971.75;5057305;28;20561;-74
2021/01/01 08:36:02;;;;;;;31.03;21.60;;;;;;;2.19;100.00;99975.34;5072355;28;20264;-75
2021/01/01 08:38:27;;;;;;;32.23;21.67;;;;;;;2.35;100.00;99985.34;5088686;28;20182;-74
2021/01/01 08:40:57;;;;;;;32.33;21.53;;;;;;;2.17;100.00;99982.00;5069289;28;20238;-74
2021/01/01 08:43:23;;;;;;;34.73;22.60;;;;;;;2.27;100.00;99988.38;5046435;28;20218;-75
2021/01/01 08:45:52;;;;;;;34.33;22.23;;;;;;;2.43;100.00;99987.66;5048825;28;20688;-75
2021/01/01 08:48:18;;;;;;;33.33;22.93;;;;;;;2.46;100.00;99982.63;5069754;28;20210;-74
2021/01/01 08:50:44;;;;;;;34.70;22.97;;;;;;;2.49;100.00;99986.69;5072488;28;20284;-74
2021/01/01 08:53:10;;;;;;;36.33;22.63;;;;;;;2.47;100.00;99995.00;5038882;28;20229;-73
2021/01/01 08:55:41;;;;;;;32.90;22.43;;;;;;;2.73;100.00;99989.91;5052429;28;20310;-73
2021/01/01 08:58:11;;;;;;;33.07;21.87;;;;;;;2.55;100.00;99991.13;5053249;28;20179;-74
2021/01/01 09:00:43;;;;;;;34.03;21.73;;;;;;;2.64;100.00;99989.69;5055732;28;20252;-74
2021/01/01 09:03:12;;;;;;;33.77;22.50;;;;;;;2.92;100.00;99990.53;5054033;28;20664;-75
2021/01/01 09:05:38;;;;;;;34.30;22.37;;;;;;;3.12;100.00;99997.06;5052443;28;20703;-75
2021/01/01 09:08:07;;;;;;;32.40;21.87;;;;;;;3.05;100.00;99988.34;5056166;28;20179;-74
2021/01/01 09:10:33;;;;;;;31.37;22.50;;;;;;;2.86;100.00;99989.63;5062223;28;20272;-74
2021/01/01 09:12:59;;;;;;;30.83;21.30;;;;;;;2.75;100.00;99993.16;5087860;28;20194;-74
2021/01/01 09:15:29;;;;;;;29.20;20.87;;;;;;;2.64;100.00;99997.72;5049054;28;20247;-74
2021/01/01 09:18:09;;;;;;;28.73;20.83;;;;;;;2.71;100.00;100000.03;5057858;28;20187;-74
2021/01/01 09:20:37;;;;;;;32.60;20.87;;;;;;;2.76;100.00;100010.84;5053021;28;20226;-74
2021/01/01 09:23:04;;;;;;;35.17;22.67;;;;;;;2.85;100.00;100006.75;5040773;28;20238;-75
2021/01/01 09:25:33;;;;;;;33.57;21.03;;;;;;;2.79;100.00;100010.38;5073233;28;20226;-74
2021/01/01 09:28:01;;;;;;;31.90;22.00;;;;;;;3.06;100.00;100017.63;5073717;28;20342;-75
2021/01/01 09:30:30;;;;;;;31.27;21.00;;;;;;;3.14;100.00;100008.38;5058074;28;20223;-75
2021/01/01 09:32:59;;;;;;;29.90;20.77;;;;;;;3.27;100.00;100000.84;5040131;28;20187;-75
2021/01/01 09:35:27;;;;;;;30.07;20.90;;;;;;;3.20;100.00;100013.56;5026516;28;20214;-75
2021/01/01 09:37:59;;;;;;;28.93;21.00;;;;;;;3.27;100.00;100024.19;5063901;28;20187;-75
2021/01/01 09:40:27;;;;;;;28.23;19.43;;;;;;;3.21;100.00;100025.94;5068632;28;20231;-75
2021/01/01 09:42:55;;;;;;;27.40;20.57;;;;;;;3.20;100.00;100028.88;5041694;28;20189;-75
2021/01/01 09:45:21;;;;;;;28.77;20.90;;;;;;;3.30;100.00;100029.88;5077603;28;20197;-75
2021/01/01 09:47:49;;;;;;;27.27;19.53;;;;;;;3.33;100.00;100029.38;5055064;28;20217;-75
2021/01/01 09:50:17;;;;;;;29.60;20.73;;;;;;;3.12;100.00;100034.63;5040797;28;20201;-75
2021/01/01 09:52:45;;;;;;;29.93;20.37;;;;;;;3.17;100.00;100032.06;5044976;28;20198;-75
2021/01/01 09:55:10;;;;;;;29.10;19.40;;;;;;;3.24;100.00;100030.00;5059389;28;20676;-76
2021/01/01 09:57:40;;;;;;;28.63;20.60;;;;;;;3.16;100.00;100036.56;5035937;28;20206;-75
2021/01/01 10:00:10;;;;;;;30.33;19.50;;;;;;;3.12;100.00;100032.75;5042453;28;20237;-76
2021/01/01 10:02:39;;;;;;;27.80;19.90;;;;;;;3.20;100.00;100028.88;5042404;28;20187;-76
2021/01/01 10:05:08;;;;;;;27.90;19.70;;;;;;;3.33;100.00;100028.56;5053485;28;20168;-76
2021/01/01 10:07:33;;;;;;;28.47;19.97;;;;;;;3.52;100.00;100028.94;5046091;28;20234;-76
2021/01/01 10:10:07;;;;;;;30.60;20.10;;;;;;;3.53;100.00;100035.09;5070401;28;20688;-76
2021/01/01 10:12:36;;;;;;;28.83;19.33;;;;;;;3.71;100.00;100037.56;5071508;28;20715;-76
2021/01/01 10:15:03;;;;;;;28.17;19.40;;;;;;;3.65;100.00;100034.00;5090924;28;20257;-76
2021/01/01 10:17:41;;;;;;;25.80;19.40;;;;;;;3.90;100.00;100042.44;5056223;28;20218;-75
2021/01/01 10:20:07;;;;;;;26.53;19.67;;;;;;;3.86;100.00;100035.94;5067373;28;20199;-75
2021/01/01 10:22:35;;;;;;;26.97;19.17;;;;;;;4.03;100.00;100026.00;5066459;28;20605;-75
2021/01/01 10:25:04;;;;;;;25.67;19.53;;;;;;;3.75;100.00;100025.28;5054805;28;20236;-75
2021/01/01 10:27:29;;;;;;;25.17;19.10;;;;;;;3.87;100.00;100034.91;5036835;28;20237;-75
2021/01/01 10:29:58;;;;;;;27.50;19.10;;;;;;;3.82;100.00;100034.81;5084011;28;20214;-74
2021/01/01 10:32:26;;;;;;;28.17;19.53;;;;;;;3.88;100.00;100036.50;5096310;28;20218;-74
2021/01/01 10:34:52;;;;;;;26.93;20.07;;;;;;;3.94;100.00;100038.25;5091192;28;20213;-72
2021/01/01 10:37:20;;;;;;;26.30;19.47;;;;;;;4.16;100.00;100026.50;5074263;28;20211;-74
2021/01/01 10:39:53;;;;;;;23.97;18.37;;;;;;;4.10;100.00;100032.81;5054885;28;20229;-75
2021/01/01 10:42:19;;;;;;;27.53;19.73;;;;;;;3.94;100.00;100038.25;5071698;28;20214;-75
2021/01/01 10:44:48;;;;;;;28.43;19.73;;;;;;;3.82;100.00;100031.31;5036134;28;20548;-74
2021/01/01 10:47:13;;;;;;;25.27;19.80;;;;;;;3.79;100.00;100034.47;5069743;28;20230;-74
2021/01/01 10:49:39;;;;;;;26.67;19.57;;;;;;;4.11;100.00;100033.66;5051540;28;20341;-75
2021/01/01 10:52:05;;;;;;;25.43;18.50;;;;;;;4.10;100.00;100037.41;5057619;28;21662;-74
2021/01/01 10:54:31;;;;;;;27.73;20.23;;;;;;;4.13;100.00;100036.91;5033934;28;20215;-74
2021/01/01 10:56:59;;;;;;;24.20;19.00;;;;;;;4.36;100.00;100037.50;5076789;28;20235;-74
2021/01/01 10:59:25;;;;;;;24.67;18.90;;;;;;;4.68;100.00;100032.06;5082955;28;20227;-75
2021/01/01 11:01:55;;;;;;;23.90;18.90;;;;;;;4.68;98.59;100037.44;5056743;28;20230;-75
2021/01/01 11:04:21;;;;;;;24.53;18.37;;;;;;;4.60;99.60;100034.38;5055296;28;20214;-78
2021/01/01 11:06:46;;;;;;;23.93;18.23;;;;;;;4.77;99.05;100032.44;5070613;28;21044;-74
2021/01/01 11:09:12;;;;;;;29.00;18.63;;;;;;;4.67;99.03;100040.38;5056628;28;20240;-74
2021/01/01 11:11:38;;;;;;;25.33;18.87;;;;;;;4.56;99.99;100033.25;5053372;28;20244;-74
2021/01/01 12:25:18;;;;;;;21.80;15.23;;;;;;;4.32;100.00;100015.72;5054443;28;20274;-74
2021/01/01 12:27:43;;;;;;;23.57;14.87;;;;;;;4.49;100.00;100000.34;5041984;28;20656;-75
2021/01/01 12:30:10;;;;;;;20.23;14.77;;;;;;;4.54;100.00;100003.09;5058153;28;20198;-73
2021/01/01 12:32:39;;;;;;;21.40;14.13;;;;;;;4.58;100.00;100012.31;5054586;28;20205;-72
2021/01/01 12:35:07;;;;;;;22.50;15.77;;;;;;;4.89;100.00;100015.13;5070135;28;20289;-74